sensor_id;sensor_type;location;lat;lon;timestamp;pressure;altitude;pressure_sealevel;temperature;humidity
49835;BME280;35729;52.090;13.162;2023-07-29T00:02:04;100269.22;;;17.95;93.50
49835;BME280;35729;52.090;13.162;2023-07-29T00:04:33;100265.75;;;17.93;93.33
49835;BME280;35729;52.090;13.162;2023-07-29T00:07:04;100265.00;;;17.91;93.18
49835;BME280;35729;52.090;13.162;2023-07-29T00:09:33;100258.84;;;17.90;93.93
49835;BME280;35729;52.090;13.162;2023-07-29T00:12:01;100257.22;;;17.88;93.68
49835;BME280;35729;52.090;13.162;2023-07-29T00:14:30;100259.88;;;17.88;93.61
49835;BME280;35729;52.090;13.162;2023-07-29T00:16:58;100255.53;;;17.87;93.50
49835;BME280;35729;52.090;13.162;2023-07-29T00:19:27;100254.56;;;17.88;93.49
49835;BME280;35729;52.090;13.162;2023-07-29T00:21:55;100256.38;;;17.87;93.59
49835;BME280;35729;52.090;13.162;2023-07-29T00:24:26;100250.22;;;17.87;93.75
49835;BME280;35729;52.090;13.162;2023-07-29T00:26:55;100252.88;;;17.87;93.73
49835;BME280;35729;52.090;13.162;2023-07-29T00:29:23;100248.53;;;17.86;93.50
49835;BME280;35729;52.090;13.162;2023-07-29T00:31:52;100247.75;;;17.84;93.80
49835;BME280;35729;52.090;13.162;2023-07-29T00:34:20;100244.31;;;17.82;93.17
49835;BME280;35729;52.090;13.162;2023-07-29T00:36:48;100245.28;;;17.81;93.39
49835;BME280;35729;52.090;13.162;2023-07-29T00:39:17;100248.97;;;17.78;93.37
49835;BME280;35729;52.090;13.162;2023-07-29T00:41:48;100240.16;;;17.78;93.56
49835;BME280;35729;52.090;13.162;2023-07-29T00:44:16;100243.84;;;17.75;93.29
49835;BME280;35729;52.090;13.162;2023-07-29T00:46:46;100233.44;;;17.72;93.54
49835;BME280;35729;52.090;13.162;2023-07-29T00:49:15;100219.38;;;17.70;93.57
49835;BME280;35729;52.090;13.162;2023-07-29T00:51:43;100218.72;;;17.66;93.58
49835;BME280;35729;52.090;13.162;2023-07-29T00:54:13;100223.28;;;17.64;93.77
49835;BME280;35729;52.090;13.162;2023-07-29T00:56:41;100218.13;;;17.61;93.76
49835;BME280;35729;52.090;13.162;2023-07-29T00:59:13;100226.28;;;17.58;93.90
49835;BME280;35729;52.090;13.162;2023-07-29T01:01:42;100230.81;;;17.56;93.82
49835;BME280;35729;52.090;13.162;2023-07-29T01:04:10;100224.75;;;17.54;94.16
49835;BME280;35729;52.090;13.162;2023-07-29T01:06:41;100230.25;;;17.51;94.04
49835;BME280;35729;52.090;13.162;2023-07-29T01:09:24;100223.44;;;17.47;94.18
49835;BME280;35729;52.090;13.162;2023-07-29T01:12:00;100230.69;;;17.43;94.27
49835;BME280;35729;52.090;13.162;2023-07-29T01:14:51;100229.09;;;17.40;94.34
49835;BME280;35729;52.090;13.162;2023-07-29T01:17:29;100223.94;;;17.37;94.53
49835;BME280;35729;52.090;13.162;2023-07-29T01:20:04;100217.13;;;17.33;94.68
49835;BME280;35729;52.090;13.162;2023-07-29T01:22:36;100217.31;;;17.30;95.12
49835;BME280;35729;52.090;13.162;2023-07-29T01:25:08;100215.75;;;17.26;94.73
49835;BME280;35729;52.090;13.162;2023-07-29T01:27:36;100219.38;;;17.25;95.01
49835;BME280;35729;52.090;13.162;2023-07-29T01:30:06;100213.41;;;17.21;95.28
49835;BME280;35729;52.090;13.162;2023-07-29T01:32:38;100218.03;;;17.18;95.15
49835;BME280;35729;52.090;13.162;2023-07-29T01:35:15;100218.19;;;17.15;95.52
49835;BME280;35729;52.090;13.162;2023-07-29T01:37:48;100216.56;;;17.12;95.32
49835;BME280;35729;52.090;13.162;2023-07-29T01:40:21;100218.53;;;17.08;95.62
49835;BME280;35729;52.090;13.162;2023-07-29T01:42:50;100212.47;;;17.06;95.42
49835;BME280;35729;52.090;13.162;2023-07-29T01:45:23;100211.78;;;17.03;95.60
49835;BME280;35729;52.090;13.162;2023-07-29T01:47:52;100214.53;;;17.01;95.64
49835;BME280;35729;52.090;13.162;2023-07-29T01:50:20;100212.81;;;17.00;95.75
49835;BME280;35729;52.090;13.162;2023-07-29T01:52:49;100209.41;;;16.98;95.97
49835;BME280;35729;52.090;13.162;2023-07-29T01:55:20;100212.06;;;16.98;96.03
49835;BME280;35729;52.090;13.162;2023-07-29T01:57:48;100212.06;;;16.98;96.09
49835;BME280;35729;52.090;13.162;2023-07-29T02:00:18;100207.63;;;16.99;96.17
49835;BME280;35729;52.090;13.162;2023-07-29T02:02:46;100203.16;;;16.99;96.21
49835;BME280;35729;52.090;13.162;2023-07-29T02:05:15;100198.75;;;17.00;96.38
49835;BME280;35729;52.090;13.162;2023-07-29T02:07:43;100198.63;;;17.01;96.44
49835;BME280;35729;52.090;13.162;2023-07-29T02:10:12;100197.72;;;17.02;96.10
49835;BME280;35729;52.090;13.162;2023-07-29T02:12:43;100205.56;;;17.04;96.22
49835;BME280;35729;52.090;13.162;2023-07-29T02:15:11;100216.06;;;17.05;96.39
49835;BME280;35729;52.090;13.162;2023-07-29T02:17:41;100217.78;;;17.06;96.53
49835;BME280;35729;52.090;13.162;2023-07-29T02:20:10;100222.16;;;17.07;96.28
49835;BME280;35729;52.090;13.162;2023-07-29T02:22:39;100217.69;;;17.08;96.39
49835;BME280;35729;52.090;13.162;2023-07-29T02:25:08;100222.88;;;17.09;96.24
49835;BME280;35729;52.090;13.162;2023-07-29T02:27:37;100228.97;;;17.12;96.53
49835;BME280;35729;52.090;13.162;2023-07-29T02:30:09;100229.81;;;17.12;96.81
49835;BME280;35729;52.090;13.162;2023-07-29T02:32:38;100230.69;;;17.13;96.83
49835;BME280;35729;52.090;13.162;2023-07-29T02:35:07;100227.09;;;17.14;96.72
49835;BME280;35729;52.090;13.162;2023-07-29T02:37:36;100219.16;;;17.14;96.68
49835;BME280;35729;52.090;13.162;2023-07-29T02:40:05;100221.78;;;17.14;96.99
49835;BME280;35729;52.090;13.162;2023-07-29T02:42:34;100220.75;;;17.16;96.56
49835;BME280;35729;52.090;13.162;2023-07-29T02:45:03;100226.91;;;17.17;97.16
49835;BME280;35729;52.090;13.162;2023-07-29T02:47:37;100226.91;;;17.17;96.70
49835;BME280;35729;52.090;13.162;2023-07-29T02:50:07;100219.72;;;17.19;97.23
49835;BME280;35729;52.090;13.162;2023-07-29T02:52:41;100224.06;;;17.20;96.82
49835;BME280;35729;52.090;13.162;2023-07-29T02:55:10;100223.13;;;17.21;97.64
49835;BME280;35729;52.090;13.162;2023-07-29T02:57:38;100221.34;;;17.21;97.85
49835;BME280;35729;52.090;13.162;2023-07-29T03:00:08;100218.69;;;17.21;97.88
49835;BME280;35729;52.090;13.162;2023-07-29T03:02:39;100219.53;;;17.22;98.10
49835;BME280;35729;52.090;13.162;2023-07-29T03:05:08;100208.94;;;17.22;97.88
49835;BME280;35729;52.090;13.162;2023-07-29T03:07:37;100219.44;;;17.23;97.74
49835;BME280;35729;52.090;13.162;2023-07-29T03:10:06;100221.25;;;17.23;97.66
49835;BME280;35729;52.090;13.162;2023-07-29T03:12:36;100221.16;;;17.24;97.62
49835;BME280;35729;52.090;13.162;2023-07-29T03:15:06;100208.84;;;17.23;97.47
49835;BME280;35729;52.090;13.162;2023-07-29T03:17:34;100219.44;;;17.23;97.67
49835;BME280;35729;52.090;13.162;2023-07-29T03:20:07;100210.66;;;17.23;97.32
49835;BME280;35729;52.090;13.162;2023-07-29T03:22:36;100210.66;;;17.23;97.42
49835;BME280;35729;52.090;13.162;2023-07-29T03:25:11;100216.06;;;17.21;97.45
49835;BME280;35729;52.090;13.162;2023-07-29T03:27:39;100213.41;;;17.21;97.73
49835;BME280;35729;52.090;13.162;2023-07-29T03:30:08;100211.69;;;17.20;97.54
49835;BME280;35729;52.090;13.162;2023-07-29T03:32:43;100217.81;;;17.21;97.49
49835;BME280;35729;52.090;13.162;2023-07-29T03:35:14;100204.75;;;17.18;97.60
49835;BME280;35729;52.090;13.162;2023-07-29T03:37:43;100213.41;;;17.21;97.89
49835;BME280;35729;52.090;13.162;2023-07-29T03:40:11;100218.69;;;17.21;97.76
49835;BME280;35729;52.090;13.162;2023-07-29T03:42:40;100211.59;;;17.22;97.62
49835;BME280;35729;52.090;13.162;2023-07-29T03:45:09;100208.00;;;17.23;98.06
49835;BME280;35729;52.090;13.162;2023-07-29T03:47:37;100207.13;;;17.22;98.22
49835;BME280;35729;52.090;13.162;2023-07-29T03:50:06;100208.09;;;17.21;98.02
49835;BME280;35729;52.090;13.162;2023-07-29T03:52:37;100208.00;;;17.23;97.89
49835;BME280;35729;52.090;13.162;2023-07-29T03:55:07;100203.53;;;17.23;98.07
49835;BME280;35729;52.090;13.162;2023-07-29T03:57:36;100208.00;;;17.23;98.46
49835;BME280;35729;52.090;13.162;2023-07-29T04:00:07;100209.78;;;17.22;98.38
49835;BME280;35729;52.090;13.162;2023-07-29T04:02:36;100208.94;;;17.22;98.74
49835;BME280;35729;52.090;13.162;2023-07-29T04:05:05;100213.41;;;17.21;98.43
49835;BME280;35729;52.090;13.162;2023-07-29T04:07:37;100221.41;;;17.20;98.89
49835;BME280;35729;52.090;13.162;2023-07-29T04:10:07;100216.13;;;17.20;98.84
49835;BME280;35729;52.090;13.162;2023-07-29T04:12:35;100222.38;;;17.19;99.21
49835;BME280;35729;52.090;13.162;2023-07-29T04:15:05;100218.97;;;17.17;99.08
49835;BME280;35729;52.090;13.162;2023-07-29T04:17:33;100213.66;;;17.17;99.43
49835;BME280;35729;52.090;13.162;2023-07-29T04:20:02;100205.69;;;17.17;99.33
49835;BME280;35729;52.090;13.162;2023-07-29T04:22:40;100206.53;;;17.17;99.31
49835;BME280;35729;52.090;13.162;2023-07-29T04:25:15;100211.00;;;17.17;99.56
49835;BME280;35729;52.090;13.162;2023-07-29T04:27:44;100210.16;;;17.16;99.75
49835;BME280;35729;52.090;13.162;2023-07-29T04:30:12;100204.00;;;17.16;99.77
49835;BME280;35729;52.090;13.162;2023-07-29T04:32:41;100202.22;;;17.16;100.00
49835;BME280;35729;52.090;13.162;2023-07-29T04:35:10;100201.25;;;17.17;100.00
49835;BME280;35729;52.090;13.162;2023-07-29T04:37:41;100203.72;;;17.20;100.00
49835;BME280;35729;52.090;13.162;2023-07-29T04:40:10;100201.91;;;17.21;99.65
49835;BME280;35729;52.090;13.162;2023-07-29T04:42:39;100202.59;;;17.24;100.00
49835;BME280;35729;52.090;13.162;2023-07-29T04:45:07;100198.91;;;17.27;100.00
49835;BME280;35729;52.090;13.162;2023-07-29T04:47:37;100205.66;;;17.33;100.00
49835;BME280;35729;52.090;13.162;2023-07-29T04:50:07;100202.72;;;17.37;99.99
49835;BME280;35729;52.090;13.162;2023-07-29T04:52:35;100210.44;;;17.42;100.00
49835;BME280;35729;52.090;13.162;2023-07-29T04:55:07;100202.22;;;17.47;100.00
49835;BME280;35729;52.090;13.162;2023-07-29T04:57:35;100201.91;;;17.51;99.80
49835;BME280;35729;52.090;13.162;2023-07-29T05:00:05;100206.13;;;17.55;99.88
49835;BME280;35729;52.090;13.162;2023-07-29T05:02:33;100212.06;;;17.59;100.00
49835;BME280;35729;52.090;13.162;2023-07-29T05:05:02;100206.59;;;17.62;100.00
49835;BME280;35729;52.090;13.162;2023-07-29T05:07:31;100201.97;;;17.66;100.00
49835;BME280;35729;52.090;13.162;2023-07-29T05:09:59;100204.41;;;17.69;100.00
49835;BME280;35729;52.090;13.162;2023-07-29T05:12:30;100206.03;;;17.71;99.98
49835;BME280;35729;52.090;13.162;2023-07-29T05:14:59;100207.56;;;17.75;100.00
49835;BME280;35729;52.090;13.162;2023-07-29T05:17:28;100203.78;;;17.80;100.00
49835;BME280;35729;52.090;13.162;2023-07-29T05:19:56;100203.56;;;17.83;99.69
49835;BME280;35729;52.090;13.162;2023-07-29T05:22:24;100209.56;;;17.86;99.51
49835;BME280;35729;52.090;13.162;2023-07-29T05:24:53;100204.09;;;17.89;99.51
49835;BME280;35729;52.090;13.162;2023-07-29T05:27:21;100205.63;;;17.94;99.15
49835;BME280;35729;52.090;13.162;2023-07-29T05:29:52;100193.97;;;17.96;99.24
49835;BME280;35729;52.090;13.162;2023-07-29T05:32:21;100189.31;;;18.00;99.83
49835;BME280;35729;52.090;13.162;2023-07-29T05:34:49;100186.38;;;18.04;99.45
49835;BME280;35729;52.090;13.162;2023-07-29T05:37:18;100182.59;;;18.09;99.04
49835;BME280;35729;52.090;13.162;2023-07-29T05:39:46;100177.84;;;18.14;99.29
49835;BME280;35729;52.090;13.162;2023-07-29T05:42:15;100174.03;;;18.18;98.82
49835;BME280;35729;52.090;13.162;2023-07-29T05:44:43;100175.44;;;18.23;98.65
49835;BME280;35729;52.090;13.162;2023-07-29T05:47:14;100174.22;;;18.29;98.83
49835;BME280;35729;52.090;13.162;2023-07-29T05:49:42;100165.00;;;18.35;98.99
49835;BME280;35729;52.090;13.162;2023-07-29T05:52:11;100157.63;;;18.40;98.40
49835;BME280;35729;52.090;13.162;2023-07-29T05:54:39;100152.75;;;18.47;98.22
49835;BME280;35729;52.090;13.162;2023-07-29T05:57:08;100152.38;;;18.53;98.16
49835;BME280;35729;52.090;13.162;2023-07-29T05:59:37;100151.22;;;18.57;97.84
49835;BME280;35729;52.090;13.162;2023-07-29T06:02:06;100161.44;;;18.63;97.14
49835;BME280;35729;52.090;13.162;2023-07-29T06:04:37;100165.41;;;18.70;97.64
49835;BME280;35729;52.090;13.162;2023-07-29T06:07:05;100167.69;;;18.77;97.36
49835;BME280;35729;52.090;13.162;2023-07-29T06:09:34;100164.50;;;18.84;96.95
49835;BME280;35729;52.090;13.162;2023-07-29T06:12:03;100168.59;;;18.90;96.30
49835;BME280;35729;52.090;13.162;2023-07-29T06:14:32;100164.56;;;18.97;96.18
49835;BME280;35729;52.090;13.162;2023-07-29T06:17:00;100168.53;;;19.04;96.46
49835;BME280;35729;52.090;13.162;2023-07-29T06:19:29;100168.09;;;19.11;95.75
49835;BME280;35729;52.090;13.162;2023-07-29T06:22:00;100174.72;;;19.18;95.45
49835;BME280;35729;52.090;13.162;2023-07-29T06:24:29;100176.88;;;19.26;95.23
49835;BME280;35729;52.090;13.162;2023-07-29T06:26:58;100178.06;;;19.34;94.27
49835;BME280;35729;52.090;13.162;2023-07-29T06:29:26;100181.06;;;19.43;93.78
49835;BME280;35729;52.090;13.162;2023-07-29T06:31:55;100192.88;;;19.51;92.20
49835;BME280;35729;52.090;13.162;2023-07-29T06:34:23;100189.69;;;19.59;91.95
49835;BME280;35729;52.090;13.162;2023-07-29T06:36:51;100189.06;;;19.68;91.47
49835;BME280;35729;52.090;13.162;2023-07-29T06:39:22;100206.22;;;19.77;90.96
49835;BME280;35729;52.090;13.162;2023-07-29T06:41:51;100194.09;;;19.86;90.24
49835;BME280;35729;52.090;13.162;2023-07-29T06:44:19;100193.44;;;19.95;89.96
49835;BME280;35729;52.090;13.162;2023-07-29T06:46:48;100188.44;;;20.04;88.82
49835;BME280;35729;52.090;13.162;2023-07-29T06:49:16;100197.59;;;20.12;88.26
49835;BME280;35729;52.090;13.162;2023-07-29T06:51:45;100190.91;;;20.20;88.64
49835;BME280;35729;52.090;13.162;2023-07-29T06:54:13;100185.75;;;20.29;88.57
49835;BME280;35729;52.090;13.162;2023-07-29T06:56:44;100190.50;;;20.37;87.90
49835;BME280;35729;52.090;13.162;2023-07-29T06:59:12;100192.53;;;20.46;86.96
49835;BME280;35729;52.090;13.162;2023-07-29T07:01:41;100193.81;;;20.54;86.38
49835;BME280;35729;52.090;13.162;2023-07-29T07:04:09;100194.19;;;20.60;85.26
49835;BME280;35729;52.090;13.162;2023-07-29T07:06:38;100183.09;;;20.66;84.89
49835;BME280;35729;52.090;13.162;2023-07-29T07:09:06;100185.97;;;20.76;84.88
49835;BME280;35729;52.090;13.162;2023-07-29T07:11:35;100189.75;;;20.85;84.76
49835;BME280;35729;52.090;13.162;2023-07-29T07:14:06;100185.91;;;20.89;83.68
49835;BME280;35729;52.090;13.162;2023-07-29T07:16:34;100194.94;;;20.99;83.00
49835;BME280;35729;52.090;13.162;2023-07-29T07:19:04;100183.56;;;21.09;81.98
49835;BME280;35729;52.090;13.162;2023-07-29T07:21:33;100186.28;;;21.20;80.28
49835;BME280;35729;52.090;13.162;2023-07-29T07:24:01;100183.66;;;21.31;78.26
49835;BME280;35729;52.090;13.162;2023-07-29T07:26:30;100184.41;;;21.45;79.76
49835;BME280;35729;52.090;13.162;2023-07-29T07:28:58;100171.13;;;21.56;78.31
49835;BME280;35729;52.090;13.162;2023-07-29T07:31:33;100161.44;;;21.67;77.99
49835;BME280;35729;52.090;13.162;2023-07-29T07:34:01;100171.16;;;21.79;78.24
49835;BME280;35729;52.090;13.162;2023-07-29T07:36:30;100169.00;;;21.84;77.94
49835;BME280;35729;52.090;13.162;2023-07-29T07:38:58;100167.03;;;21.86;77.53
49835;BME280;35729;52.090;13.162;2023-07-29T07:41:27;100167.53;;;21.91;77.28
49835;BME280;35729;52.090;13.162;2023-07-29T07:43:55;100155.63;;;21.95;77.19
49835;BME280;35729;52.090;13.162;2023-07-29T07:46:24;100163.41;;;21.99;76.62
49835;BME280;35729;52.090;13.162;2023-07-29T07:48:55;100161.34;;;22.02;76.94
49835;BME280;35729;52.090;13.162;2023-07-29T07:51:23;100155.78;;;22.05;76.43
49835;BME280;35729;52.090;13.162;2023-07-29T07:53:52;100153.59;;;22.10;76.18
49835;BME280;35729;52.090;13.162;2023-07-29T07:56:20;100152.97;;;22.18;75.88
49835;BME280;35729;52.090;13.162;2023-07-29T07:58:48;100151.47;;;22.25;75.41
49835;BME280;35729;52.090;13.162;2023-07-29T08:01:17;100140.91;;;22.35;75.20
49835;BME280;35729;52.090;13.162;2023-07-29T08:03:45;100142.75;;;22.46;74.04
49835;BME280;35729;52.090;13.162;2023-07-29T08:06:16;100148.31;;;22.54;72.68
49835;BME280;35729;52.090;13.162;2023-07-29T08:08:45;100148.53;;;22.63;72.60
49835;BME280;35729;52.090;13.162;2023-07-29T08:11:13;100146.94;;;22.71;72.16
49835;BME280;35729;52.090;13.162;2023-07-29T08:13:42;100144.34;;;22.81;71.47
49835;BME280;35729;52.090;13.162;2023-07-29T08:16:10;100141.63;;;22.92;70.67
49835;BME280;35729;52.090;13.162;2023-07-29T08:18:38;100139.75;;;23.04;70.75
49835;BME280;35729;52.090;13.162;2023-07-29T08:21:07;100141.63;;;23.14;70.39
49835;BME280;35729;52.090;13.162;2023-07-29T08:23:38;100139.19;;;23.22;68.64
49835;BME280;35729;52.090;13.162;2023-07-29T08:26:06;100148.28;;;23.31;69.71
49835;BME280;35729;52.090;13.162;2023-07-29T08:28:36;100132.53;;;23.37;69.03
49835;BME280;35729;52.090;13.162;2023-07-29T08:31:05;100125.56;;;23.46;68.94
49835;BME280;35729;52.090;13.162;2023-07-29T08:33:34;100128.69;;;23.51;68.47
49835;BME280;35729;52.090;13.162;2023-07-29T08:36:03;100132.25;;;23.62;68.46
49835;BME280;35729;52.090;13.162;2023-07-29T08:38:32;100129.75;;;23.70;67.61
49835;BME280;35729;52.090;13.162;2023-07-29T08:41:10;100143.31;;;23.78;66.20
49835;BME280;35729;52.090;13.162;2023-07-29T08:43:47;100128.69;;;23.82;66.31
49835;BME280;35729;52.090;13.162;2023-07-29T08:46:19;100124.63;;;23.88;66.77
49835;BME280;35729;52.090;13.162;2023-07-29T08:48:48;100130.31;;;23.95;66.56
49835;BME280;35729;52.090;13.162;2023-07-29T08:51:18;100126.97;;;24.02;66.45
49835;BME280;35729;52.090;13.162;2023-07-29T08:53:48;100125.44;;;24.10;65.79
49835;BME280;35729;52.090;13.162;2023-07-29T08:56:19;100126.44;;;24.18;65.08
49835;BME280;35729;52.090;13.162;2023-07-29T08:58:48;100123.94;;;24.27;64.85
49835;BME280;35729;52.090;13.162;2023-07-29T09:01:17;100125.34;;;24.31;64.32
49835;BME280;35729;52.090;13.162;2023-07-29T09:03:45;100126.06;;;24.33;63.62
49835;BME280;35729;52.090;13.162;2023-07-29T09:06:14;100122.97;;;24.37;64.02
49835;BME280;35729;52.090;13.162;2023-07-29T09:08:43;100122.56;;;24.42;63.09
49835;BME280;35729;52.090;13.162;2023-07-29T09:11:13;100118.59;;;24.46;63.26
49835;BME280;35729;52.090;13.162;2023-07-29T09:14:07;100121.44;;;24.45;61.88
49835;BME280;35729;52.090;13.162;2023-07-29T09:16:36;100115.09;;;24.46;62.50
49835;BME280;35729;52.090;13.162;2023-07-29T09:19:05;100115.91;;;24.46;61.67
49835;BME280;35729;52.090;13.162;2023-07-29T09:21:33;100116.66;;;24.48;61.35
49835;BME280;35729;52.090;13.162;2023-07-29T09:24:08;100107.72;;;24.48;59.89
49835;BME280;35729;52.090;13.162;2023-07-29T09:26:49;100101.97;;;24.52;60.35
49835;BME280;35729;52.090;13.162;2023-07-29T09:29:28;100098.00;;;24.56;60.44
49835;BME280;35729;52.090;13.162;2023-07-29T09:32:18;100093.78;;;24.64;60.26
49835;BME280;35729;52.090;13.162;2023-07-29T09:34:47;100090.56;;;24.70;61.28
49835;BME280;35729;52.090;13.162;2023-07-29T09:37:16;100088.31;;;24.75;61.08
49835;BME280;35729;52.090;13.162;2023-07-29T09:39:46;100094.09;;;24.80;60.91
49835;BME280;35729;52.090;13.162;2023-07-29T09:42:18;100098.75;;;24.88;60.71
49835;BME280;35729;52.090;13.162;2023-07-29T09:44:50;100088.59;;;25.01;60.61
49835;BME280;35729;52.090;13.162;2023-07-29T09:47:20;100092.81;;;25.14;59.92
49835;BME280;35729;52.090;13.162;2023-07-29T09:49:50;100092.91;;;25.22;58.75
49835;BME280;35729;52.090;13.162;2023-07-29T09:52:19;100095.44;;;25.24;58.60
49835;BME280;35729;52.090;13.162;2023-07-29T09:54:48;100092.66;;;25.25;58.07
49835;BME280;35729;52.090;13.162;2023-07-29T09:57:18;100079.91;;;25.27;57.71
49835;BME280;35729;52.090;13.162;2023-07-29T09:59:56;100087.53;;;25.32;57.09
49835;BME280;35729;52.090;13.162;2023-07-29T10:02:25;100079.91;;;25.37;57.25
49835;BME280;35729;52.090;13.162;2023-07-29T10:04:56;100076.66;;;25.43;57.02
49835;BME280;35729;52.090;13.162;2023-07-29T10:07:26;100076.06;;;25.49;57.00
49835;BME280;35729;52.090;13.162;2023-07-29T10:09:54;100076.16;;;25.58;56.73
49835;BME280;35729;52.090;13.162;2023-07-29T10:12:24;100066.38;;;25.66;56.27
49835;BME280;35729;52.090;13.162;2023-07-29T10:14:59;100067.09;;;25.68;54.35
49835;BME280;35729;52.090;13.162;2023-07-29T10:17:28;100062.28;;;25.72;55.29
49835;BME280;35729;52.090;13.162;2023-07-29T10:19:57;100056.91;;;25.72;55.04
49835;BME280;35729;52.090;13.162;2023-07-29T10:22:31;100057.72;;;25.73;55.35
49835;BME280;35729;52.090;13.162;2023-07-29T10:25:03;100046.00;;;25.74;55.58
49835;BME280;35729;52.090;13.162;2023-07-29T10:27:42;100050.22;;;25.76;54.12
49835;BME280;35729;52.090;13.162;2023-07-29T10:30:14;100050.22;;;25.76;55.05
49835;BME280;35729;52.090;13.162;2023-07-29T10:32:44;100048.69;;;25.74;54.39
49835;BME280;35729;52.090;13.162;2023-07-29T10:35:13;100039.84;;;25.63;55.01
49835;BME280;35729;52.090;13.162;2023-07-29T10:37:42;100050.22;;;25.48;56.12
49835;BME280;35729;52.090;13.162;2023-07-29T10:40:11;100058.19;;;25.20;57.76
49835;BME280;35729;52.090;13.162;2023-07-29T10:42:59;100059.06;;;24.82;60.89
49835;BME280;35729;52.090;13.162;2023-07-29T10:45:36;100064.00;;;24.47;65.56
49835;BME280;35729;52.090;13.162;2023-07-29T10:48:07;100062.97;;;24.09;65.11
49835;BME280;35729;52.090;13.162;2023-07-29T10:50:35;100059.97;;;23.62;67.92
49835;BME280;35729;52.090;13.162;2023-07-29T10:53:04;100066.09;;;23.21;69.96
49835;BME280;35729;52.090;13.162;2023-07-29T10:55:34;100057.59;;;22.95;71.28
49835;BME280;35729;52.090;13.162;2023-07-29T10:58:07;100046.53;;;22.78;73.89
49835;BME280;35729;52.090;13.162;2023-07-29T11:00:41;100051.78;;;22.69;73.12
49835;BME280;35729;52.090;13.162;2023-07-29T11:03:10;100045.72;;;22.67;73.01
49835;BME280;35729;52.090;13.162;2023-07-29T11:05:48;100048.38;;;22.67;74.35
49835;BME280;35729;52.090;13.162;2023-07-29T11:08:22;100048.38;;;22.67;73.50
49835;BME280;35729;52.090;13.162;2023-07-29T11:10:58;100049.34;;;22.66;73.94
49835;BME280;35729;52.090;13.162;2023-07-29T11:13:27;100049.81;;;22.71;73.76
49835;BME280;35729;52.090;13.162;2023-07-29T11:15:59;100054.19;;;22.72;74.70
49835;BME280;35729;52.090;13.162;2023-07-29T11:18:28;100048.97;;;22.70;72.98
49835;BME280;35729;52.090;13.162;2023-07-29T11:20:58;100054.47;;;22.69;71.82
49835;BME280;35729;52.090;13.162;2023-07-29T11:23:31;100049.34;;;22.66;71.17
49835;BME280;35729;52.090;13.162;2023-07-29T11:26:06;100056.66;;;22.64;70.42
49835;BME280;35729;52.090;13.162;2023-07-29T11:28:38;100059.34;;;22.64;71.06
49835;BME280;35729;52.090;13.162;2023-07-29T11:31:09;100055.94;;;22.61;69.72
49835;BME280;35729;52.090;13.162;2023-07-29T11:33:39;100054.38;;;22.59;69.52
49835;BME280;35729;52.090;13.162;2023-07-29T11:36:17;100051.69;;;22.59;69.35
49835;BME280;35729;52.090;13.162;2023-07-29T11:38:46;100082.94;;;22.58;69.71
49835;BME280;35729;52.090;13.162;2023-07-29T11:41:19;100093.88;;;22.55;70.48
49835;BME280;35729;52.090;13.162;2023-07-29T11:43:49;100095.47;;;22.47;72.54
49835;BME280;35729;52.090;13.162;2023-07-29T11:46:23;100109.63;;;22.03;77.84
49835;BME280;35729;52.090;13.162;2023-07-29T11:48:53;100120.75;;;21.52;78.74
49835;BME280;35729;52.090;13.162;2023-07-29T11:51:22;100130.44;;;20.94;81.75
49835;BME280;35729;52.090;13.162;2023-07-29T11:53:51;100125.00;;;20.34;84.29
49835;BME280;35729;52.090;13.162;2023-07-29T11:56:19;100134.59;;;19.87;85.63
49835;BME280;35729;52.090;13.162;2023-07-29T11:58:48;100135.09;;;19.41;87.31
49835;BME280;35729;52.090;13.162;2023-07-29T12:01:17;100127.69;;;19.05;88.16
49835;BME280;35729;52.090;13.162;2023-07-29T12:03:49;100116.03;;;18.81;89.38
49835;BME280;35729;52.090;13.162;2023-07-29T12:06:17;100112.78;;;18.63;89.38
49835;BME280;35729;52.090;13.162;2023-07-29T12:08:46;100102.94;;;18.50;90.86
49835;BME280;35729;52.090;13.162;2023-07-29T12:11:15;100096.44;;;18.42;90.36
49835;BME280;35729;52.090;13.162;2023-07-29T12:13:43;100090.56;;;18.36;91.59
49835;BME280;35729;52.090;13.162;2023-07-29T12:16:16;100078.53;;;18.31;92.26
49835;BME280;35729;52.090;13.162;2023-07-29T12:18:50;100070.00;;;18.26;92.71
49835;BME280;35729;52.090;13.162;2023-07-29T12:21:18;100064.03;;;18.22;91.93
49835;BME280;35729;52.090;13.162;2023-07-29T12:23:47;100064.25;;;18.19;93.04
49835;BME280;35729;52.090;13.162;2023-07-29T12:26:17;100060.84;;;18.17;93.32
49835;BME280;35729;52.090;13.162;2023-07-29T12:28:46;100061.59;;;18.19;94.32
49835;BME280;35729;52.090;13.162;2023-07-29T12:31:16;100063.31;;;18.20;93.68
49835;BME280;35729;52.090;13.162;2023-07-29T12:33:44;100056.84;;;18.24;93.93
49835;BME280;35729;52.090;13.162;2023-07-29T12:36:16;100060.06;;;18.29;94.54
49835;BME280;35729;52.090;13.162;2023-07-29T12:38:45;100049.56;;;18.40;94.73
49835;BME280;35729;52.090;13.162;2023-07-29T12:41:13;100051.31;;;18.54;94.33
49835;BME280;35729;52.090;13.162;2023-07-29T12:43:42;100041.50;;;18.69;95.39
49835;BME280;35729;52.090;13.162;2023-07-29T12:46:10;100051.28;;;18.82;94.83
49835;BME280;35729;52.090;13.162;2023-07-29T12:48:38;100043.56;;;18.92;94.02
49835;BME280;35729;52.090;13.162;2023-07-29T12:51:07;100042.09;;;19.00;94.40
49835;BME280;35729;52.090;13.162;2023-07-29T12:53:38;100038.06;;;19.08;94.13
49835;BME280;35729;52.090;13.162;2023-07-29T12:56:07;100047.22;;;19.16;94.05